sensor_id;sensor_type;location;lat;lon;timestamp;temperature;humidity
39079;DHT22;24829;49.208;12.080;2024-03-22T00:00:41;6.90;99.90
39079;DHT22;24829;49.208;12.080;2024-03-22T00:03:07;6.90;99.90
39079;DHT22;24829;49.208;12.080;2024-03-22T00:05:32;6.80;99.90
39079;DHT22;24829;49.208;12.080;2024-03-22T00:07:58;6.80;99.90
39079;DHT22;24829;49.208;12.080;2024-03-22T00:10:24;6.80;99.90
39079;DHT22;24829;49.208;12.080;2024-03-22T00:12:50;6.80;99.90
39079;DHT22;24829;49.208;12.080;2024-03-22T00:15:15;6.70;99.90
39079;DHT22;24829;49.208;12.080;2024-03-22T00:17:44;6.60;99.90
39079;DHT22;24829;49.208;12.080;2024-03-22T00:20:10;6.50;99.90
39079;DHT22;24829;49.208;12.080;2024-03-22T00:22:35;6.40;99.90
39079;DHT22;24829;49.208;12.080;2024-03-22T00:25:01;6.30;99.90
39079;DHT22;24829;49.208;12.080;2024-03-22T00:27:27;6.30;99.90
39079;DHT22;24829;49.208;12.080;2024-03-22T00:29:53;6.30;99.90
39079;DHT22;24829;49.208;12.080;2024-03-22T00:32:18;6.30;99.90
39079;DHT22;24829;49.208;12.080;2024-03-22T00:34:44;6.30;99.90
39079;DHT22;24829;49.208;12.080;2024-03-22T00:37:10;6.20;99.90
39079;DHT22;24829;49.208;12.080;2024-03-22T00:39:36;6.10;99.90
39079;DHT22;24829;49.208;12.080;2024-03-22T00:42:01;6.10;99.90
39079;DHT22;24829;49.208;12.080;2024-03-22T00:44:27;6.10;99.90
39079;DHT22;24829;49.208;12.080;2024-03-22T00:46:53;6.00;99.90
39079;DHT22;24829;49.208;12.080;2024-03-22T00:49:18;6.00;99.90
39079;DHT22;24829;49.208;12.080;2024-03-22T00:51:44;5.90;99.90
39079;DHT22;24829;49.208;12.080;2024-03-22T00:54:10;6.00;99.90
39079;DHT22;24829;49.208;12.080;2024-03-22T00:56:36;6.00;99.90
39079;DHT22;24829;49.208;12.080;2024-03-22T00:59:01;6.00;99.90
39079;DHT22;24829;49.208;12.080;2024-03-22T01:01:27;5.90;99.90
39079;DHT22;24829;49.208;12.080;2024-03-22T01:03:53;5.90;99.90
39079;DHT22;24829;49.208;12.080;2024-03-22T01:06:18;5.80;99.90
39079;DHT22;24829;49.208;12.080;2024-03-22T01:08:49;5.70;99.90
39079;DHT22;24829;49.208;12.080;2024-03-22T01:11:14;5.50;99.90
39079;DHT22;24829;49.208;12.080;2024-03-22T01:13:40;5.50;99.90
39079;DHT22;24829;49.208;12.080;2024-03-22T01:16:06;5.40;99.90
39079;DHT22;24829;49.208;12.080;2024-03-22T01:18:35;5.30;99.90
39079;DHT22;24829;49.208;12.080;2024-03-22T01:21:01;5.30;99.90
39079;DHT22;24829;49.208;12.080;2024-03-22T01:23:26;5.20;99.90
39079;DHT22;24829;49.208;12.080;2024-03-22T01:25:52;5.10;99.90
39079;DHT22;24829;49.208;12.080;2024-03-22T01:28:17;5.00;99.90
39079;DHT22;24829;49.208;12.080;2024-03-22T01:30:43;4.90;99.90
39079;DHT22;24829;49.208;12.080;2024-03-22T01:33:09;4.90;99.90
39079;DHT22;24829;49.208;12.080;2024-03-22T01:35:35;4.80;99.90
39079;DHT22;24829;49.208;12.080;2024-03-22T01:38:00;4.70;99.90
39079;DHT22;24829;49.208;12.080;2024-03-22T01:40:26;4.70;99.90
39079;DHT22;24829;49.208;12.080;2024-03-22T01:42:58;4.60;99.90
39079;DHT22;24829;49.208;12.080;2024-03-22T01:45:24;4.60;99.90
39079;DHT22;24829;49.208;12.080;2024-03-22T01:47:54;4.60;99.90
39079;DHT22;24829;49.208;12.080;2024-03-22T01:50:23;4.60;99.90
39079;DHT22;24829;49.208;12.080;2024-03-22T01:52:49;4.60;99.90
39079;DHT22;24829;49.208;12.080;2024-03-22T01:55:15;4.70;99.90
39079;DHT22;24829;49.208;12.080;2024-03-22T01:57:41;4.60;99.90
39079;DHT22;24829;49.208;12.080;2024-03-22T02:00:08;4.60;99.90
39079;DHT22;24829;49.208;12.080;2024-03-22T02:02:34;4.60;99.90
39079;DHT22;24829;49.208;12.080;2024-03-22T02:05:10;4.60;99.90
39079;DHT22;24829;49.208;12.080;2024-03-22T02:07:36;4.60;99.90
39079;DHT22;24829;49.208;12.080;2024-03-22T02:10:02;4.60;99.90
39079;DHT22;24829;49.208;12.080;2024-03-22T02:12:27;4.60;99.90
39079;DHT22;24829;49.208;12.080;2024-03-22T02:14:53;4.70;99.90
39079;DHT22;24829;49.208;12.080;2024-03-22T02:17:19;4.60;99.90
39079;DHT22;24829;49.208;12.080;2024-03-22T02:19:44;4.60;99.90
39079;DHT22;24829;49.208;12.080;2024-03-22T02:22:10;4.50;99.90
39079;DHT22;24829;49.208;12.080;2024-03-22T02:24:35;4.40;99.90
39079;DHT22;24829;49.208;12.080;2024-03-22T02:27:01;4.40;99.90
39079;DHT22;24829;49.208;12.080;2024-03-22T02:29:27;4.40;99.90
39079;DHT22;24829;49.208;12.080;2024-03-22T02:31:53;4.40;99.90
39079;DHT22;24829;49.208;12.080;2024-03-22T02:34:18;4.40;99.90
39079;DHT22;24829;49.208;12.080;2024-03-22T02:36:44;4.40;99.90
39079;DHT22;24829;49.208;12.080;2024-03-22T02:39:09;4.50;99.90
39079;DHT22;24829;49.208;12.080;2024-03-22T02:41:35;4.50;99.90
39079;DHT22;24829;49.208;12.080;2024-03-22T02:44:01;4.50;99.90
39079;DHT22;24829;49.208;12.080;2024-03-22T02:46:26;4.50;99.90
39079;DHT22;24829;49.208;12.080;2024-03-22T02:48:52;4.50;99.90
39079;DHT22;24829;49.208;12.080;2024-03-22T02:51:17;4.50;99.90
39079;DHT22;24829;49.208;12.080;2024-03-22T02:53:43;4.50;99.90
39079;DHT22;24829;49.208;12.080;2024-03-22T02:56:09;4.50;99.90
39079;DHT22;24829;49.208;12.080;2024-03-22T02:58:34;4.50;99.90
39079;DHT22;24829;49.208;12.080;2024-03-22T03:01:02;4.60;99.90
39079;DHT22;24829;49.208;12.080;2024-03-22T03:03:28;4.50;99.90
39079;DHT22;24829;49.208;12.080;2024-03-22T03:05:54;4.50;99.90
39079;DHT22;24829;49.208;12.080;2024-03-22T03:08:20;4.50;99.90
39079;DHT22;24829;49.208;12.080;2024-03-22T03:10:45;4.60;99.90
39079;DHT22;24829;49.208;12.080;2024-03-22T03:13:11;4.60;99.90
39079;DHT22;24829;49.208;12.080;2024-03-22T03:15:37;4.60;99.90
39079;DHT22;24829;49.208;12.080;2024-03-22T03:18:02;4.60;99.90
39079;DHT22;24829;49.208;12.080;2024-03-22T03:20:28;4.60;99.90
39079;DHT22;24829;49.208;12.080;2024-03-22T03:22:54;4.60;99.90
39079;DHT22;24829;49.208;12.080;2024-03-22T03:25:20;4.50;99.90
39079;DHT22;24829;49.208;12.080;2024-03-22T03:27:46;4.50;99.90
39079;DHT22;24829;49.208;12.080;2024-03-22T03:30:12;4.40;99.90
39079;DHT22;24829;49.208;12.080;2024-03-22T03:32:37;4.40;99.90
39079;DHT22;24829;49.208;12.080;2024-03-22T03:35:03;4.40;99.90
39079;DHT22;24829;49.208;12.080;2024-03-22T03:37:29;4.30;99.90
39079;DHT22;24829;49.208;12.080;2024-03-22T03:39:54;4.40;99.90
39079;DHT22;24829;49.208;12.080;2024-03-22T03:42:20;4.30;99.90
39079;DHT22;24829;49.208;12.080;2024-03-22T03:44:45;4.30;99.90
39079;DHT22;24829;49.208;12.080;2024-03-22T03:47:11;4.30;99.90
39079;DHT22;24829;49.208;12.080;2024-03-22T03:49:36;4.30;99.90
39079;DHT22;24829;49.208;12.080;2024-03-22T03:52:02;4.20;99.90
39079;DHT22;24829;49.208;12.080;2024-03-22T03:54:28;4.20;99.90
39079;DHT22;24829;49.208;12.080;2024-03-22T03:56:54;4.20;99.90
39079;DHT22;24829;49.208;12.080;2024-03-22T03:59:19;4.20;99.90
39079;DHT22;24829;49.208;12.080;2024-03-22T04:01:45;4.30;99.90
39079;DHT22;24829;49.208;12.080;2024-03-22T04:04:10;4.30;99.90
39079;DHT22;24829;49.208;12.080;2024-03-22T04:06:36;4.40;99.90
39079;DHT22;24829;49.208;12.080;2024-03-22T04:09:01;4.40;99.90
39079;DHT22;24829;49.208;12.080;2024-03-22T04:11:28;4.40;99.90
39079;DHT22;24829;49.208;12.080;2024-03-22T04:13:53;4.50;99.90
39079;DHT22;24829;49.208;12.080;2024-03-22T04:16:19;4.50;99.90
39079;DHT22;24829;49.208;12.080;2024-03-22T04:18:45;4.50;99.90
39079;DHT22;24829;49.208;12.080;2024-03-22T04:21:11;4.50;99.90
39079;DHT22;24829;49.208;12.080;2024-03-22T04:23:36;4.50;99.90
39079;DHT22;24829;49.208;12.080;2024-03-22T04:26:02;4.50;99.90
39079;DHT22;24829;49.208;12.080;2024-03-22T04:28:28;4.40;99.90
39079;DHT22;24829;49.208;12.080;2024-03-22T04:31:05;4.30;99.90
39079;DHT22;24829;49.208;12.080;2024-03-22T04:33:32;4.30;99.90
39079;DHT22;24829;49.208;12.080;2024-03-22T04:35:58;4.20;99.90
39079;DHT22;24829;49.208;12.080;2024-03-22T04:38:25;4.20;99.90
39079;DHT22;24829;49.208;12.080;2024-03-22T04:40:51;4.20;99.90
39079;DHT22;24829;49.208;12.080;2024-03-22T04:43:17;4.20;99.90
39079;DHT22;24829;49.208;12.080;2024-03-22T04:45:44;4.10;99.90
39079;DHT22;24829;49.208;12.080;2024-03-22T04:48:11;4.10;99.90
39079;DHT22;24829;49.208;12.080;2024-03-22T04:50:37;4.00;99.90
39079;DHT22;24829;49.208;12.080;2024-03-22T04:53:03;3.90;99.90
39079;DHT22;24829;49.208;12.080;2024-03-22T04:55:29;3.90;99.90
39079;DHT22;24829;49.208;12.080;2024-03-22T04:57:54;3.80;99.90
39079;DHT22;24829;49.208;12.080;2024-03-22T05:00:20;3.80;99.90
39079;DHT22;24829;49.208;12.080;2024-03-22T05:02:46;3.80;99.90
39079;DHT22;24829;49.208;12.080;2024-03-22T05:05:12;3.80;99.90
39079;DHT22;24829;49.208;12.080;2024-03-22T05:07:38;3.70;99.90
39079;DHT22;24829;49.208;12.080;2024-03-22T05:10:04;3.60;99.90
39079;DHT22;24829;49.208;12.080;2024-03-22T05:12:30;3.60;99.90
39079;DHT22;24829;49.208;12.080;2024-03-22T05:14:56;3.50;99.90
39079;DHT22;24829;49.208;12.080;2024-03-22T05:17:22;3.50;99.90
39079;DHT22;24829;49.208;12.080;2024-03-22T05:19:47;3.50;99.90
39079;DHT22;24829;49.208;12.080;2024-03-22T05:22:13;3.50;99.90
39079;DHT22;24829;49.208;12.080;2024-03-22T05:24:38;3.50;99.90
39079;DHT22;24829;49.208;12.080;2024-03-22T05:27:04;3.50;99.90
39079;DHT22;24829;49.208;12.080;2024-03-22T05:29:30;3.50;99.90
39079;DHT22;24829;49.208;12.080;2024-03-22T05:31:55;3.40;99.90
39079;DHT22;24829;49.208;12.080;2024-03-22T05:34:22;3.50;99.90
39079;DHT22;24829;49.208;12.080;2024-03-22T05:36:48;3.40;99.90
39079;DHT22;24829;49.208;12.080;2024-03-22T05:39:14;3.40;99.90
39079;DHT22;24829;49.208;12.080;2024-03-22T05:41:40;3.40;99.90
39079;DHT22;24829;49.208;12.080;2024-03-22T05:44:06;3.40;99.90
39079;DHT22;24829;49.208;12.080;2024-03-22T05:46:31;3.40;99.90
39079;DHT22;24829;49.208;12.080;2024-03-22T05:49:00;3.40;99.90
39079;DHT22;24829;49.208;12.080;2024-03-22T05:51:26;3.40;99.90
39079;DHT22;24829;49.208;12.080;2024-03-22T05:53:51;3.50;99.90
39079;DHT22;24829;49.208;12.080;2024-03-22T05:56:17;3.50;99.90
39079;DHT22;24829;49.208;12.080;2024-03-22T05:58:43;3.60;99.90
39079;DHT22;24829;49.208;12.080;2024-03-22T06:01:08;3.70;99.90
39079;DHT22;24829;49.208;12.080;2024-03-22T06:03:34;3.80;99.90
39079;DHT22;24829;49.208;12.080;2024-03-22T06:06:00;3.90;99.90
39079;DHT22;24829;49.208;12.080;2024-03-22T06:08:27;4.00;99.90
39079;DHT22;24829;49.208;12.080;2024-03-22T06:10:54;4.10;99.90
39079;DHT22;24829;49.208;12.080;2024-03-22T06:13:20;4.10;99.90
39079;DHT22;24829;49.208;12.080;2024-03-22T06:15:48;4.20;99.90
39079;DHT22;24829;49.208;12.080;2024-03-22T06:18:14;4.30;99.90
39079;DHT22;24829;49.208;12.080;2024-03-22T06:20:40;4.40;99.90
39079;DHT22;24829;49.208;12.080;2024-03-22T06:23:06;4.50;99.90
39079;DHT22;24829;49.208;12.080;2024-03-22T06:25:32;4.60;99.90
39079;DHT22;24829;49.208;12.080;2024-03-22T06:27:58;4.70;99.90
39079;DHT22;24829;49.208;12.080;2024-03-22T06:30:23;4.70;99.90
39079;DHT22;24829;49.208;12.080;2024-03-22T06:32:49;4.80;99.90
39079;DHT22;24829;49.208;12.080;2024-03-22T06:35:14;4.80;99.90
39079;DHT22;24829;49.208;12.080;2024-03-22T06:37:40;4.80;99.90
39079;DHT22;24829;49.208;12.080;2024-03-22T06:40:07;4.80;99.90
39079;DHT22;24829;49.208;12.080;2024-03-22T06:42:32;4.90;99.90
39079;DHT22;24829;49.208;12.080;2024-03-22T06:44:58;4.90;99.90
39079;DHT22;24829;49.208;12.080;2024-03-22T06:47:24;5.00;99.90
39079;DHT22;24829;49.208;12.080;2024-03-22T06:49:49;5.00;99.90
39079;DHT22;24829;49.208;12.080;2024-03-22T06:52:15;5.10;99.90
39079;DHT22;24829;49.208;12.080;2024-03-22T06:54:41;5.10;99.90
39079;DHT22;24829;49.208;12.080;2024-03-22T06:57:06;5.10;99.90
39079;DHT22;24829;49.208;12.080;2024-03-22T06:59:32;5.10;99.90
39079;DHT22;24829;49.208;12.080;2024-03-22T07:01:58;5.20;99.90
39079;DHT22;24829;49.208;12.080;2024-03-22T07:04:23;5.20;99.90
39079;DHT22;24829;49.208;12.080;2024-03-22T07:06:49;5.30;99.90
39079;DHT22;24829;49.208;12.080;2024-03-22T07:09:14;5.40;99.90
39079;DHT22;24829;49.208;12.080;2024-03-22T07:11:41;5.60;99.90
39079;DHT22;24829;49.208;12.080;2024-03-22T07:14:06;5.90;99.90
39079;DHT22;24829;49.208;12.080;2024-03-22T07:16:32;6.30;99.90
39079;DHT22;24829;49.208;12.080;2024-03-22T07:18:58;6.40;99.90
39079;DHT22;24829;49.208;12.080;2024-03-22T07:21:23;6.60;99.90
39079;DHT22;24829;49.208;12.080;2024-03-22T07:23:49;6.60;99.90
39079;DHT22;24829;49.208;12.080;2024-03-22T07:26:14;6.50;99.90
39079;DHT22;24829;49.208;12.080;2024-03-22T07:28:40;6.40;99.90
39079;DHT22;24829;49.208;12.080;2024-03-22T07:31:06;6.40;99.90
39079;DHT22;24829;49.208;12.080;2024-03-22T07:33:31;6.30;99.90
39079;DHT22;24829;49.208;12.080;2024-03-22T07:36:02;6.30;99.90
39079;DHT22;24829;49.208;12.080;2024-03-22T07:38:28;6.40;99.90
39079;DHT22;24829;49.208;12.080;2024-03-22T07:40:53;6.40;99.90
39079;DHT22;24829;49.208;12.080;2024-03-22T07:43:19;6.40;99.90
39079;DHT22;24829;49.208;12.080;2024-03-22T07:45:44;6.40;99.90
39079;DHT22;24829;49.208;12.080;2024-03-22T07:48:10;6.50;99.90
39079;DHT22;24829;49.208;12.080;2024-03-22T07:50:36;6.50;99.90
39079;DHT22;24829;49.208;12.080;2024-03-22T07:53:02;6.60;99.90
39079;DHT22;24829;49.208;12.080;2024-03-22T07:55:28;6.60;99.90
39079;DHT22;24829;49.208;12.080;2024-03-22T07:57:53;6.70;99.90
39079;DHT22;24829;49.208;12.080;2024-03-22T08:00:19;6.70;99.90
39079;DHT22;24829;49.208;12.080;2024-03-22T08:02:45;6.80;99.90
39079;DHT22;24829;49.208;12.080;2024-03-22T08:05:10;6.80;99.90
39079;DHT22;24829;49.208;12.080;2024-03-22T08:07:36;6.90;99.90
39079;DHT22;24829;49.208;12.080;2024-03-22T08:10:01;6.90;99.90
39079;DHT22;24829;49.208;12.080;2024-03-22T08:12:28;7.00;99.90
39079;DHT22;24829;49.208;12.080;2024-03-22T08:14:53;7.00;99.90
39079;DHT22;24829;49.208;12.080;2024-03-22T08:17:19;7.00;99.90
39079;DHT22;24829;49.208;12.080;2024-03-22T08:19:45;6.90;99.90
39079;DHT22;24829;49.208;12.080;2024-03-22T08:22:10;6.90;99.90
39079;DHT22;24829;49.208;12.080;2024-03-22T08:24:36;6.90;99.90
39079;DHT22;24829;49.208;12.080;2024-03-22T08:27:03;6.90;99.90
39079;DHT22;24829;49.208;12.080;2024-03-22T08:29:28;6.90;99.90
39079;DHT22;24829;49.208;12.080;2024-03-22T08:31:54;6.90;99.90
39079;DHT22;24829;49.208;12.080;2024-03-22T08:34:21;7.00;99.90
39079;DHT22;24829;49.208;12.080;2024-03-22T08:36:46;7.00;99.90
39079;DHT22;24829;49.208;12.080;2024-03-22T08:39:12;7.10;99.90
39079;DHT22;24829;49.208;12.080;2024-03-22T08:41:38;7.20;99.90
39079;DHT22;24829;49.208;12.080;2024-03-22T08:44:04;7.30;99.90
39079;DHT22;24829;49.208;12.080;2024-03-22T08:46:30;7.40;99.90
39079;DHT22;24829;49.208;12.080;2024-03-22T08:48:57;7.60;99.90
39079;DHT22;24829;49.208;12.080;2024-03-22T08:51:23;7.80;99.90
39079;DHT22;24829;49.208;12.080;2024-03-22T08:53:48;8.00;99.90
39079;DHT22;24829;49.208;12.080;2024-03-22T08:56:14;8.10;99.90
39079;DHT22;24829;49.208;12.080;2024-03-22T08:58:40;8.40;99.90
39079;DHT22;24829;49.208;12.080;2024-03-22T09:01:06;8.50;99.90
39079;DHT22;24829;49.208;12.080;2024-03-22T09:03:31;8.70;99.90
39079;DHT22;24829;49.208;12.080;2024-03-22T09:05:57;8.80;99.90
39079;DHT22;24829;49.208;12.080;2024-03-22T09:08:23;8.90;99.90
39079;DHT22;24829;49.208;12.080;2024-03-22T09:10:48;8.90;99.90
39079;DHT22;24829;49.208;12.080;2024-03-22T09:13:14;8.90;99.90
39079;DHT22;24829;49.208;12.080;2024-03-22T09:15:40;8.90;99.90
39079;DHT22;24829;49.208;12.080;2024-03-22T09:18:05;9.00;99.90
39079;DHT22;24829;49.208;12.080;2024-03-22T09:20:31;9.00;99.90
39079;DHT22;24829;49.208;12.080;2024-03-22T09:22:57;9.10;99.90
39079;DHT22;24829;49.208;12.080;2024-03-22T09:25:27;9.20;99.90
39079;DHT22;24829;49.208;12.080;2024-03-22T09:27:52;9.20;99.90
39079;DHT22;24829;49.208;12.080;2024-03-22T09:30:18;9.20;99.90
39079;DHT22;24829;49.208;12.080;2024-03-22T09:32:44;9.30;99.90
39079;DHT22;24829;49.208;12.080;2024-03-22T09:35:10;9.30;99.90
39079;DHT22;24829;49.208;12.080;2024-03-22T09:37:37;9.40;99.90
39079;DHT22;24829;49.208;12.080;2024-03-22T09:40:02;9.40;99.90
39079;DHT22;24829;49.208;12.080;2024-03-22T09:42:33;9.40;99.90
39079;DHT22;24829;49.208;12.080;2024-03-22T09:44:58;9.50;99.90
39079;DHT22;24829;49.208;12.080;2024-03-22T09:47:25;9.50;99.90
39079;DHT22;24829;49.208;12.080;2024-03-22T09:49:52;9.70;99.90
39079;DHT22;24829;49.208;12.080;2024-03-22T09:52:20;9.70;99.90
39079;DHT22;24829;49.208;12.080;2024-03-22T09:54:46;9.70;99.90
39079;DHT22;24829;49.208;12.080;2024-03-22T09:57:15;9.70;99.90
39079;DHT22;24829;49.208;12.080;2024-03-22T09:59:46;9.70;99.90
39079;DHT22;24829;49.208;12.080;2024-03-22T10:02:12;9.70;99.90
39079;DHT22;24829;49.208;12.080;2024-03-22T10:04:39;9.80;99.90
39079;DHT22;24829;49.208;12.080;2024-03-22T10:07:04;9.80;99.90
39079;DHT22;24829;49.208;12.080;2024-03-22T10:09:30;9.90;99.90
39079;DHT22;24829;49.208;12.080;2024-03-22T10:11:57;10.00;99.90
39079;DHT22;24829;49.208;12.080;2024-03-22T10:14:23;10.10;99.90
39079;DHT22;24829;49.208;12.080;2024-03-22T10:16:53;10.20;99.90
39079;DHT22;24829;49.208;12.080;2024-03-22T10:19:20;10.40;99.90
39079;DHT22;24829;49.208;12.080;2024-03-22T10:22:04;10.40;99.90
39079;DHT22;24829;49.208;12.080;2024-03-22T10:24:33;10.40;99.90
39079;DHT22;24829;49.208;12.080;2024-03-22T10:26:59;10.40;99.90
39079;DHT22;24829;49.208;12.080;2024-03-22T10:29:25;10.50;99.90
39079;DHT22;24829;49.208;12.080;2024-03-22T10:31:55;10.50;99.90
39079;DHT22;24829;49.208;12.080;2024-03-22T10:34:21;10.60;99.90
39079;DHT22;24829;49.208;12.080;2024-03-22T10:36:47;10.70;99.90
39079;DHT22;24829;49.208;12.080;2024-03-22T10:39:16;10.80;99.90
39079;DHT22;24829;49.208;12.080;2024-03-22T10:41:44;10.90;99.90
39079;DHT22;24829;49.208;12.080;2024-03-22T10:44:10;10.90;99.90
39079;DHT22;24829;49.208;12.080;2024-03-22T10:46:36;11.00;99.90
39079;DHT22;24829;49.208;12.080;2024-03-22T10:49:03;11.10;99.90
39079;DHT22;24829;49.208;12.080;2024-03-22T10:51:32;11.20;99.90
39079;DHT22;24829;49.208;12.080;2024-03-22T10:54:00;11.30;99.90
39079;DHT22;24829;49.208;12.080;2024-03-22T10:56:27;11.40;99.90
39079;DHT22;24829;49.208;12.080;2024-03-22T10:58:53;11.50;99.90
39079;DHT22;24829;49.208;12.080;2024-03-22T11:01:26;11.50;99.90
39079;DHT22;24829;49.208;12.080;2024-03-22T11:04:02;11.60;99.90
39079;DHT22;24829;49.208;12.080;2024-03-22T11:06:30;11.60;99.90
39079;DHT22;24829;49.208;12.080;2024-03-22T11:08:59;11.60;99.90
39079;DHT22;24829;49.208;12.080;2024-03-22T11:11:28;11.60;99.90
39079;DHT22;24829;49.208;12.080;2024-03-22T11:13:54;11.60;99.90
39079;DHT22;24829;49.208;12.080;2024-03-22T11:16:21;11.70;99.90
39079;DHT22;24829;49.208;12.080;2024-03-22T11:18:47;11.80;99.90
39079;DHT22;24829;49.208;12.080;2024-03-22T11:21:14;11.90;99.90
39079;DHT22;24829;49.208;12.080;2024-03-22T11:23:40;12.00;99.90
39079;DHT22;24829;49.208;12.080;2024-03-22T11:26:06;12.10;99.90
39079;DHT22;24829;49.208;12.080;2024-03-22T11:28:35;12.20;99.90
39079;DHT22;24829;49.208;12.080;2024-03-22T11:31:01;12.30;99.90
39079;DHT22;24829;49.208;12.080;2024-03-22T11:33:27;12.40;99.90
39079;DHT22;24829;49.208;12.080;2024-03-22T11:35:53;12.50;99.90
39079;DHT22;24829;49.208;12.080;2024-03-22T11:38:19;12.50;99.90
39079;DHT22;24829;49.208;12.080;2024-03-22T11:40:45;12.60;99.90
39079;DHT22;24829;49.208;12.080;2024-03-22T11:43:11;12.70;99.90
39079;DHT22;24829;49.208;12.080;2024-03-22T11:45:40;12.80;99.90
39079;DHT22;24829;49.208;12.080;2024-03-22T11:48:06;12.80;99.90
39079;DHT22;24829;49.208;12.080;2024-03-22T11:50:32;12.90;99.90
39079;DHT22;24829;49.208;12.080;2024-03-22T11:52:58;13.00;99.90
39079;DHT22;24829;49.208;12.080;2024-03-22T11:55:27;12.90;99.90
39079;DHT22;24829;49.208;12.080;2024-03-22T11:57:53;12.90;99.90
39079;DHT22;24829;49.208;12.080;2024-03-22T12:00:19;12.90;99.90
39079;DHT22;24829;49.208;12.080;2024-03-22T12:02:45;12.90;99.90
39079;DHT22;24829;49.208;12.080;2024-03-22T12:05:11;12.90;99.90
39079;DHT22;24829;49.208;12.080;2024-03-22T12:07:37;12.80;99.90
39079;DHT22;24829;49.208;12.080;2024-03-22T12:10:03;12.80;99.90
39079;DHT22;24829;49.208;12.080;2024-03-22T12:12:30;12.90;99.90
39079;DHT22;24829;49.208;12.080;2024-03-22T12:14:55;12.90;99.90
39079;DHT22;24829;49.208;12.080;2024-03-22T12:17:21;13.00;99.90
39079;DHT22;24829;49.208;12.080;2024-03-22T12:19:47;12.90;99.90
39079;DHT22;24829;49.208;12.080;2024-03-22T12:22:13;13.00;99.90
39079;DHT22;24829;49.208;12.080;2024-03-22T12:24:38;13.10;99.90
39079;DHT22;24829;49.208;12.080;2024-03-22T12:27:04;13.20;99.90
39079;DHT22;24829;49.208;12.080;2024-03-22T12:29:32;13.30;99.90
39079;DHT22;24829;49.208;12.080;2024-03-22T12:31:59;13.40;99.90
39079;DHT22;24829;49.208;12.080;2024-03-22T12:34:27;13.40;99.90
39079;DHT22;24829;49.208;12.080;2024-03-22T12:36:53;13.40;99.90
39079;DHT22;24829;49.208;12.080;2024-03-22T12:39:18;13.40;99.90
39079;DHT22;24829;49.208;12.080;2024-03-22T12:41:44;13.40;99.90
39079;DHT22;24829;49.208;12.080;2024-03-22T12:44:10;13.50;99.90
39079;DHT22;24829;49.208;12.080;2024-03-22T12:46:35;13.60;99.90
39079;DHT22;24829;49.208;12.080;2024-03-22T12:49:01;13.70;99.90
39079;DHT22;24829;49.208;12.080;2024-03-22T12:51:26;13.70;99.90
39079;DHT22;24829;49.208;12.080;2024-03-22T12:53:52;13.80;99.90
39079;DHT22;24829;49.208;12.080;2024-03-22T12:56:18;13.80;99.90
39079;DHT22;24829;49.208;12.080;2024-03-22T12:58:43;13.90;99.90
39079;DHT22;24829;49.208;12.080;2024-03-22T13:01:09;14.00;99.90
39079;DHT22;24829;49.208;12.080;2024-03-22T13:03:36;14.00;99.90
39079;DHT22;24829;49.208;12.080;2024-03-22T13:06:03;14.00;99.90
39079;DHT22;24829;49.208;12.080;2024-03-22T13:08:29;14.00;99.90
39079;DHT22;24829;49.208;12.080;2024-03-22T13:10:54;14.00;99.90
39079;DHT22;24829;49.208;12.080;2024-03-22T13:13:20;13.90;99.90
39079;DHT22;24829;49.208;12.080;2024-03-22T13:15:45;13.80;99.90
39079;DHT22;24829;49.208;12.080;2024-03-22T13:18:12;13.80;99.90
39079;DHT22;24829;49.208;12.080;2024-03-22T13:20:38;13.70;99.90
39079;DHT22;24829;49.208;12.080;2024-03-22T13:23:04;13.70;99.90
39079;DHT22;24829;49.208;12.080;2024-03-22T13:25:31;13.70;99.90
39079;DHT22;24829;49.208;12.080;2024-03-22T13:27:56;13.80;99.90
39079;DHT22;24829;49.208;12.080;2024-03-22T13:30:22;13.80;99.90
39079;DHT22;24829;49.208;12.080;2024-03-22T13:32:48;13.90;99.90
39079;DHT22;24829;49.208;12.080;2024-03-22T13:35:14;14.00;99.90
39079;DHT22;24829;49.208;12.080;2024-03-22T13:37:40;14.10;99.90
39079;DHT22;24829;49.208;12.080;2024-03-22T13:40:07;14.10;99.90
39079;DHT22;24829;49.208;12.080;2024-03-22T13:42:33;14.20;99.90
39079;DHT22;24829;49.208;12.080;2024-03-22T13:44:58;14.30;99.90
39079;DHT22;24829;49.208;12.080;2024-03-22T13:47:25;14.30;99.90
39079;DHT22;24829;49.208;12.080;2024-03-22T13:49:53;14.40;99.90
39079;DHT22;24829;49.208;12.080;2024-03-22T13:52:19;14.50;99.90
39079;DHT22;24829;49.208;12.080;2024-03-22T13:54:46;14.50;99.90
39079;DHT22;24829;49.208;12.080;2024-03-22T13:57:12;14.60;99.90
39079;DHT22;24829;49.208;12.080;2024-03-22T13:59:37;14.70;99.90
39079;DHT22;24829;49.208;12.080;2024-03-22T14:02:06;14.80;99.90
39079;DHT22;24829;49.208;12.080;2024-03-22T14:04:31;14.80;99.90
39079;DHT22;24829;49.208;12.080;2024-03-22T14:06:57;14.80;99.90
39079;DHT22;24829;49.208;12.080;2024-03-22T14:09:23;14.70;99.90
39079;DHT22;24829;49.208;12.080;2024-03-22T14:11:49;14.60;99.90
39079;DHT22;24829;49.208;12.080;2024-03-22T14:14:15;14.60;99.90
39079;DHT22;24829;49.208;12.080;2024-03-22T14:16:41;14.60;99.90
39079;DHT22;24829;49.208;12.080;2024-03-22T14:19:09;14.60;99.90
39079;DHT22;24829;49.208;12.080;2024-03-22T14:21:35;14.50;99.90
39079;DHT22;24829;49.208;12.080;2024-03-22T14:24:01;14.50;99.90
39079;DHT22;24829;49.208;12.080;2024-03-22T14:26:28;14.40;99.90
39079;DHT22;24829;49.208;12.080;2024-03-22T14:28:54;14.30;99.90
39079;DHT22;24829;49.208;12.080;2024-03-22T14:31:19;14.10;99.90
39079;DHT22;24829;49.208;12.080;2024-03-22T14:33:45;14.10;99.90
39079;DHT22;24829;49.208;12.080;2024-03-22T14:36:11;14.00;99.90
39079;DHT22;24829;49.208;12.080;2024-03-22T14:38:38;14.00;99.90
39079;DHT22;24829;49.208;12.080;2024-03-22T14:41:04;14.00;99.90
39079;DHT22;24829;49.208;12.080;2024-03-22T14:43:30;13.90;99.90
39079;DHT22;24829;49.208;12.080;2024-03-22T14:46:00;13.90;99.90
39079;DHT22;24829;49.208;12.080;2024-03-22T14:48:26;13.90;99.90
39079;DHT22;24829;49.208;12.080;2024-03-22T14:50:52;14.00;99.90
39079;DHT22;24829;49.208;12.080;2024-03-22T14:53:22;14.00;99.90
39079;DHT22;24829;49.208;12.080;2024-03-22T14:55:54;14.00;99.90
39079;DHT22;24829;49.208;12.080;2024-03-22T14:58:23;14.10;99.90
39079;DHT22;24829;49.208;12.080;2024-03-22T15:00:55;14.00;99.90
39079;DHT22;24829;49.208;12.080;2024-03-22T15:03:21;14.00;99.90
39079;DHT22;24829;49.208;12.080;2024-03-22T15:05:50;14.00;99.90
39079;DHT22;24829;49.208;12.080;2024-03-22T15:08:16;14.00;99.90
39079;DHT22;24829;49.208;12.080;2024-03-22T15:10:42;14.10;99.90
39079;DHT22;24829;49.208;12.080;2024-03-22T15:13:08;14.10;99.90
39079;DHT22;24829;49.208;12.080;2024-03-22T15:15:34;14.10;99.90
39079;DHT22;24829;49.208;12.080;2024-03-22T15:17:59;14.10;99.90